Time;durP1;ratioP1;P1;durP2;ratioP2;P2;SDS_P1;SDS_P2;PMS_P1;PMS_P2;Temp;Humidity;BMP_temperature;BMP_pressure;BME280_temperature;BME280_humidity;BME280_pressure;Samples;Min_cycle;Max_cycle;Signal;HPM_P1;HPM_P2
2021/05/18 00:00:14;;;;;;;1.77;1.63;;;;;;;;;;5038554;28;20205;-62
2021/05/18 00:02:42;;;;;;;1.97;1.77;;;;;;;;;;5036909;28;20197;-60
2021/05/18 00:05:13;;;;;;;2.23;1.60;;;;;;;;;;5034133;28;20669;-64
2021/05/18 00:07:41;;;;;;;1.90;1.63;;;;;;;;;;5036321;28;20630;-58
2021/05/18 00:12:52;;;;;;;2.30;2.10;;;;;;;;;;5037583;28;20987;-59
2021/05/18 00:15:20;;;;;;;2.40;2.20;;;;;;;;;;5046404;28;20271;-57
2021/05/18 00:17:46;;;;;;;2.40;2.20;;;;;;;;;;5044817;28;20210;-64
2021/05/18 00:20:16;;;;;;;4.87;2.37;;;;;;;;;;5042690;28;20349;-56
2021/05/18 00:22:43;;;;;;;2.70;2.50;;;;;;;;;;5042140;28;20194;-62
2021/05/18 00:25:12;;;;;;;3.67;3.07;;;;;;;;;;5043898;28;20288;-63
2021/05/18 00:27:39;;;;;;;5.67;3.53;;;;;;;;;;5044975;28;20312;-57
2021/05/18 00:30:11;;;;;;;5.10;3.40;;;;;;;;;;5054460;28;20197;-59
2021/05/18 00:32:39;;;;;;;4.47;3.73;;;;;;;;;;5044925;28;20692;-60
2021/05/18 00:35:09;;;;;;;4.57;4.17;;;;;;;;;;5042337;28;20196;-59
2021/05/18 00:37:37;;;;;;;6.17;4.20;;;;;;;;;;5043621;28;20202;-58
2021/05/18 00:40:08;;;;;;;5.20;4.33;;;;;;;;;;5046523;28;20688;-59
2021/05/18 00:42:52;;;;;;;4.83;4.37;;;;;;;;;;5050264;28;20182;-60
2021/05/18 00:45:35;;;;;;;8.90;5.00;;;;;;;;;;5047085;28;20192;-59
2021/05/18 00:48:05;;;;;;;8.23;5.00;;;;;;;;;;5040939;28;20193;-59
2021/05/18 00:50:33;;;;;;;4.90;4.50;;;;;;;;;;5054832;28;20698;-59
2021/05/18 00:53:02;;;;;;;5.20;4.50;;;;;;;;;;5054592;28;20652;-59
2021/05/18 01:00:45;;;;;;;4.97;4.23;;;;;;;;;;5040541;28;20185;-58
2021/05/18 01:03:16;;;;;;;4.97;4.50;;;;;;;;;;5038637;28;20243;-61
2021/05/18 01:08:30;;;;;;;5.57;4.97;;;;;;;;;;5041399;28;20239;-60
2021/05/18 01:11:00;;;;;;;8.67;5.40;;;;;;;;;;5054839;28;20222;-57
2021/05/18 01:13:26;;;;;;;7.77;6.20;;;;;;;;;;5047318;28;20242;-58
2021/05/18 01:15:51;;;;;;;7.80;5.57;;;;;;;;;;5045410;28;20187;-57
2021/05/18 01:18:19;;;;;;;7.53;6.73;;;;;;;;;;5047667;28;20221;-57
2021/05/18 01:20:58;;;;;;;6.77;6.03;;;;;;;;;;5043128;28;20563;-56
2021/05/18 01:23:24;;;;;;;9.47;7.13;;;;;;;;;;5046530;28;20189;-58
2021/05/18 01:25:53;;;;;;;11.43;7.83;;;;;;;;;;5047526;28;20206;-59
2021/05/18 01:28:22;;;;;;;10.07;7.90;;;;;;;;;;5044822;28;20229;-59
2021/05/18 01:30:50;;;;;;;9.50;8.20;;;;;;;;;;5049351;28;20246;-59
2021/05/18 01:33:17;;;;;;;11.70;8.13;;;;;;;;;;5048465;28;20201;-60
2021/05/18 01:35:45;;;;;;;11.30;8.83;;;;;;;;;;5060953;28;20193;-60
2021/05/18 01:38:14;;;;;;;10.77;8.30;;;;;;;;;;5046194;28;20261;-60
2021/05/18 01:43:09;;;;;;;13.00;9.20;;;;;;;;;;5046778;28;20196;-59
2021/05/18 01:45:35;;;;;;;11.13;9.67;;;;;;;;;;5044741;28;20189;-59
2021/05/18 01:48:05;;;;;;;13.30;9.83;;;;;;;;;;5043591;28;20198;-58
2021/05/18 01:50:33;;;;;;;11.30;9.70;;;;;;;;;;5041115;28;20209;-62
2021/05/18 01:53:00;;;;;;;10.87;9.03;;;;;;;;;;5041496;28;20201;-59
2021/05/18 01:55:39;;;;;;;11.60;9.70;;;;;;;;;;5042926;28;20201;-59
2021/05/18 01:58:05;;;;;;;11.90;10.07;;;;;;;;;;5042338;28;20808;-61
2021/05/18 02:00:33;;;;;;;12.47;10.60;;;;;;;;;;5041511;28;20190;-61
2021/05/18 02:02:59;;;;;;;13.23;10.13;;;;;;;;;;5042219;28;20204;-59
2021/05/18 02:05:28;;;;;;;13.67;10.47;;;;;;;;;;5043425;28;20546;-62
2021/05/18 02:07:57;;;;;;;13.00;9.57;;;;;;;;;;5039502;28;20213;-63
2021/05/18 02:10:23;;;;;;;13.73;10.10;;;;;;;;;;5042008;28;20194;-61
2021/05/18 02:12:57;;;;;;;11.83;9.57;;;;;;;;;;5042151;28;20197;-62
2021/05/18 02:26:18;;;;;;;14.30;10.50;;;;;;;;;;5049138;28;20323;-60
2021/05/18 02:28:44;;;;;;;15.23;10.63;;;;;;;;;;5049234;28;20721;-59
2021/05/18 02:31:11;;;;;;;15.50;11.10;;;;;;;;;;5053392;28;20217;-59
2021/05/18 02:33:37;;;;;;;17.67;11.07;;;;;;;;;;5050285;28;20646;-58
2021/05/18 02:36:03;;;;;;;13.83;10.83;;;;;;;;;;5048840;28;20187;-60
2021/05/18 02:38:31;;;;;;;16.57;11.73;;;;;;;;;;5049698;28;20218;-60
2021/05/18 02:40:58;;;;;;;17.53;11.57;;;;;;;;;;5050412;28;20197;-61
2021/05/18 02:43:29;;;;;;;20.67;12.00;;;;;;;;;;5048849;28;21754;-61
2021/05/18 02:46:04;;;;;;;19.43;12.33;;;;;;;;;;5048529;28;20248;-61
2021/05/18 02:51:16;;;;;;;16.67;11.73;;;;;;;;;;5051107;28;20232;-58
2021/05/18 02:53:43;;;;;;;16.43;12.03;;;;;;;;;;5053625;28;20199;-59
2021/05/18 02:56:25;;;;;;;16.40;12.20;;;;;;;;;;5049724;28;20189;-60
2021/05/18 02:58:59;;;;;;;19.67;13.00;;;;;;;;;;5048720;28;20731;-60
2021/05/18 03:01:27;;;;;;;18.37;11.50;;;;;;;;;;5055239;28;20198;-58
2021/05/18 03:03:57;;;;;;;16.63;12.43;;;;;;;;;;5047408;28;20650;-56
2021/05/18 03:06:25;;;;;;;16.53;12.00;;;;;;;;;;5050463;28;20197;-62
2021/05/18 03:08:54;;;;;;;19.33;12.23;;;;;;;;;;5050327;28;20190;-61
2021/05/18 03:11:22;;;;;;;17.43;12.20;;;;;;;;;;5048595;28;20221;-61
2021/05/18 03:13:47;;;;;;;23.00;12.17;;;;;;;;;;5052398;28;20604;-59
2021/05/18 03:16:15;;;;;;;19.30;11.40;;;;;;;;;;5049643;28;20186;-60
2021/05/18 03:18:43;;;;;;;17.03;11.57;;;;;;;;;;5050489;28;20209;-58
2021/05/18 03:21:08;;;;;;;15.23;11.53;;;;;;;;;;5054752;28;20189;-61
2021/05/18 03:23:36;;;;;;;20.27;11.70;;;;;;;;;;5048963;28;20193;-60
2021/05/18 03:26:04;;;;;;;18.93;12.47;;;;;;;;;;5048778;28;20273;-58
2021/05/18 03:28:29;;;;;;;19.47;13.47;;;;;;;;;;5049775;28;20301;-58
2021/05/18 03:36:14;;;;;;;18.23;11.70;;;;;;;;;;5040730;28;20652;-60
2021/05/18 03:38:45;;;;;;;18.13;12.47;;;;;;;;;;5045993;28;20209;-59
2021/05/18 03:41:22;;;;;;;19.53;12.73;;;;;;;;;;5050103;28;20193;-62
2021/05/18 03:44:18;;;;;;;20.83;12.63;;;;;;;;;;5045810;28;20856;-60
2021/05/18 03:54:49;;;;;;;18.13;12.60;;;;;;;;;;5048630;28;20193;-60
2021/05/18 04:02:58;;;;;;;19.73;12.63;;;;;;;;;;5054119;28;20303;-58
2021/05/18 04:21:12;;;;;;;18.90;12.77;;;;;;;;;;5049671;28;20185;-58
2021/05/18 04:53:24;;;;;;;21.37;12.70;;;;;;;;;;5042214;28;20186;-59
2021/05/18 05:01:16;;;;;;;19.57;13.27;;;;;;;;;;5046702;28;20209;-60
2021/05/18 05:06:21;;;;;;;21.53;12.80;;;;;;;;;;5048361;28;20309;-58
2021/05/18 05:08:56;;;;;;;20.33;14.07;;;;;;;;;;5045845;28;20222;-59
2021/05/18 05:14:16;;;;;;;19.23;12.37;;;;;;;;;;5037901;28;20308;-60
2021/05/18 05:16:41;;;;;;;20.97;12.83;;;;;;;;;;5052979;28;20194;-60
2021/05/18 05:19:07;;;;;;;16.63;12.77;;;;;;;;;;5044604;28;20252;-58
2021/05/18 05:21:37;;;;;;;21.63;13.17;;;;;;;;;;5047030;28;20202;-58
2021/05/18 05:24:02;;;;;;;17.83;12.83;;;;;;;;;;5047974;28;20255;-60
2021/05/18 05:26:31;;;;;;;16.23;12.03;;;;;;;;;;5042707;28;20210;-59
2021/05/18 05:28:58;;;;;;;15.27;11.70;;;;;;;;;;5051536;28;20297;-57
2021/05/18 05:31:24;;;;;;;18.47;10.97;;;;;;;;;;5050804;28;20221;-58
2021/05/18 05:33:50;;;;;;;16.27;12.00;;;;;;;;;;5059365;28;20224;-59
2021/05/18 05:36:20;;;;;;;15.77;10.93;;;;;;;;;;5051372;28;20217;-58
2021/05/18 05:38:48;;;;;;;16.83;10.73;;;;;;;;;;5046690;28;20938;-59
2021/05/18 05:41:14;;;;;;;16.17;10.97;;;;;;;;;;5048238;28;20556;-57
2021/05/18 05:43:42;;;;;;;19.80;11.23;;;;;;;;;;5048665;28;20174;-57
2021/05/18 05:46:08;;;;;;;14.80;9.73;;;;;;;;;;5049693;28;20213;-59
2021/05/18 05:48:36;;;;;;;22.47;11.10;;;;;;;;;;5049444;28;20214;-61
2021/05/18 05:51:04;;;;;;;16.23;11.00;;;;;;;;;;5055433;28;20246;-59
2021/05/18 05:53:30;;;;;;;17.13;10.57;;;;;;;;;;5060536;28;20280;-59
2021/05/18 05:55:58;;;;;;;16.70;9.77;;;;;;;;;;5049641;28;20178;-60
2021/05/18 05:58:23;;;;;;;16.67;10.63;;;;;;;;;;5048178;28;20201;-57
2021/05/18 06:00:51;;;;;;;17.13;9.67;;;;;;;;;;5056083;28;20182;-62
2021/05/18 06:03:18;;;;;;;12.40;9.10;;;;;;;;;;5051131;28;20601;-61
2021/05/18 06:05:46;;;;;;;17.83;10.83;;;;;;;;;;5053182;28;20178;-59
2021/05/18 06:08:13;;;;;;;15.30;9.57;;;;;;;;;;5038191;28;20728;-58
2021/05/18 06:10:42;;;;;;;14.43;9.50;;;;;;;;;;5035654;28;20229;-59
2021/05/18 06:13:45;;;;;;;15.17;9.70;;;;;;;;;;5059215;28;20886;-61
2021/05/18 06:16:33;;;;;;;12.80;8.67;;;;;;;;;;5040675;28;20190;-57
2021/05/18 06:48:16;;;;;;;14.77;10.23;;;;;;;;;;5044751;28;20202;-65
2021/05/18 06:50:42;;;;;;;18.03;9.47;;;;;;;;;;5047601;28;20265;-63
2021/05/18 06:53:07;;;;;;;14.53;9.60;;;;;;;;;;5045175;28;20265;-62
2021/05/18 06:55:38;;;;;;;13.83;8.57;;;;;;;;;;5044450;28;20658;-61
2021/05/18 06:58:09;;;;;;;11.93;8.20;;;;;;;;;;5045201;28;20214;-60
2021/05/18 07:00:39;;;;;;;14.20;7.63;;;;;;;;;;5046506;28;20186;-60
2021/05/18 07:03:08;;;;;;;9.77;6.20;;;;;;;;;;5042262;28;20178;-64
2021/05/18 07:05:41;;;;;;;;;;;;;;;;;;;;;
2021/05/18 07:10:49;;;;;;;10.57;5.72;;;;;;;;;;5047746;28;20204;-64
2021/05/18 07:13:20;;;;;;;11.80;5.67;;;;;;;;;;5046943;28;20280;-63
2021/05/18 07:15:50;;;;;;;10.23;6.32;;;;;;;;;;5044808;28;20190;-64
2021/05/18 07:18:17;;;;;;;10.97;7.03;;;;;;;;;;5044102;28;20305;-63
2021/05/18 07:20:43;;;;;;;12.93;7.40;;;;;;;;;;5049618;28;20196;-63
2021/05/18 07:23:10;;;;;;;14.93;7.03;;;;;;;;;;5047932;28;20277;-59
2021/05/18 07:25:38;;;;;;;13.47;7.00;;;;;;;;;;5044108;28;20197;-61
2021/05/18 07:28:07;;;;;;;12.70;6.13;;;;;;;;;;5045533;28;20301;-59
2021/05/18 07:30:34;;;;;;;11.43;6.03;;;;;;;;;;5045465;28;20182;-61
2021/05/18 07:32:59;;;;;;;10.50;5.90;;;;;;;;;;5045500;28;20599;-62
2021/05/18 07:35:29;;;;;;;8.77;5.60;;;;;;;;;;5046536;28;20178;-60
2021/05/18 07:37:56;;;;;;;10.43;5.37;;;;;;;;;;5035419;28;20259;-62
2021/05/18 07:40:22;;;;;;;11.37;5.80;;;;;;;;;;5054186;28;20200;-61
2021/05/18 07:42:51;;;;;;;9.67;5.13;;;;;;;;;;5043860;28;20182;-63
2021/05/18 07:45:22;;;;;;;7.17;4.90;;;;;;;;;;5040455;28;20206;-63
2021/05/18 07:47:47;;;;;;;7.50;4.57;;;;;;;;;;5036468;28;20621;-64
2021/05/18 07:50:22;;;;;;;5.77;4.40;;;;;;;;;;5039677;28;20225;-61
2021/05/18 08:06:26;;;;;;;6.88;3.50;;;;;;;;;;5034096;28;20233;-63
2021/05/18 08:08:53;;;;;;;5.93;3.70;;;;;;;;;;5033875;28;20210;-60
2021/05/18 08:11:19;;;;;;;6.25;4.05;;;;;;;;;;5034077;28;20200;-65
2021/05/18 08:13:47;;;;;;;5.63;3.70;;;;;;;;;;5036874;28;20190;-62
2021/05/18 08:16:49;;;;;;;6.53;3.95;;;;;;;;;;5042614;28;20215;-60
2021/05/18 08:21:45;;;;;;;6.22;3.70;;;;;;;;;;5042236;28;20795;-63
2021/05/18 08:47:41;;;;;;;5.30;4.17;;;;;;;;;;5036893;28;20268;-63
2021/05/18 08:55:34;;;;;;;9.43;4.50;;;;;;;;;;5037602;28;20221;-63
2021/05/18 10:35:54;;;;;;;5.72;3.83;;;;;;;;;;5029691;28;20264;-57
2021/05/18 10:38:22;;;;;;;3.95;3.20;;;;;;;;;;5028444;28;20244;-56
2021/05/18 10:40:48;;;;;;;4.45;2.70;;;;;;;;;;5019333;28;20625;-58
2021/05/18 10:43:23;;;;;;;6.93;2.55;;;;;;;;;;5026392;28;20817;-58
2021/05/18 10:45:55;;;;;;;3.70;2.50;;;;;;;;;;5024487;28;20193;-57
2021/05/18 10:48:23;;;;;;;5.32;3.20;;;;;;;;;;5021098;28;20221;-57
2021/05/18 10:50:49;;;;;;;4.78;3.10;;;;;;;;;;5024790;28;20678;-57
2021/05/18 10:53:21;;;;;;;5.50;3.55;;;;;;;;;;5024126;28;20187;-57
2021/05/18 10:56:06;;;;;;;3.85;3.42;;;;;;;;;;5025672;28;20202;-58
2021/05/18 10:58:31;;;;;;;3.28;2.78;;;;;;;;;;5017831;28;20189;-57
2021/05/18 11:01:03;;;;;;;4.25;3.75;;;;;;;;;;5024133;28;20215;-58
2021/05/18 11:03:31;;;;;;;4.70;3.35;;;;;;;;;;5021005;28;20246;-58
2021/05/18 11:06:04;;;;;;;4.22;3.70;;;;;;;;;;5021361;28;20647;-58
2021/05/18 11:08:29;;;;;;;3.88;2.80;;;;;;;;;;5026281;28;20273;-57
2021/05/18 11:10:59;;;;;;;4.07;3.20;;;;;;;;;;5019740;28;20762;-62
2021/05/18 11:13:26;;;;;;;3.00;2.80;;;;;;;;;;5021696;28;20206;-59
2021/05/18 11:15:56;;;;;;;3.97;2.90;;;;;;;;;;5020890;28;20328;-58
2021/05/18 11:18:30;;;;;;;6.55;3.30;;;;;;;;;;5020603;28;20193;-55
2021/05/18 11:21:07;;;;;;;4.07;2.80;;;;;;;;;;5021336;28;20210;-55
2021/05/18 11:23:33;;;;;;;3.72;3.00;;;;;;;;;;5019072;28;20211;-55
2021/05/18 11:26:07;;;;;;;3.30;2.95;;;;;;;;;;5021223;28;20647;-56
2021/05/18 11:28:40;;;;;;;3.00;2.70;;;;;;;;;;5023911;28;20198;-55
2021/05/18 11:31:08;;;;;;;7.55;3.03;;;;;;;;;;5021729;28;20207;-55
2021/05/18 11:33:42;;;;;;;3.58;2.78;;;;;;;;;;5025587;28;20730;-56
2021/05/18 11:36:15;;;;;;;5.88;3.03;;;;;;;;;;5014467;28;20194;-56
2021/05/18 11:38:47;;;;;;;4.65;3.45;;;;;;;;;;5014369;28;20562;-56
2021/05/18 11:41:19;;;;;;;6.40;3.20;;;;;;;;;;5014632;28;20217;-57
2021/05/18 11:43:50;;;;;;;6.90;3.78;;;;;;;;;;5020205;28;20197;-55
2021/05/18 11:46:16;;;;;;;8.30;3.42;;;;;;;;;;5025380;28;20206;-57
2021/05/18 11:48:56;;;;;;;5.45;3.35;;;;;;;;;;5016573;28;20183;-55
2021/05/18 11:51:22;;;;;;;4.57;3.33;;;;;;;;;;5022716;28;20218;-54
2021/05/18 11:53:50;;;;;;;3.28;2.45;;;;;;;;;;5025446;28;20265;-55
2021/05/18 11:56:17;;;;;;;5.70;2.67;;;;;;;;;;5022188;28;20186;-55
2021/05/18 11:58:43;;;;;;;2.83;2.55;;;;;;;;;;5022576;28;20618;-55
2021/05/18 12:01:08;;;;;;;3.28;2.70;;;;;;;;;;5015727;28;20286;-54
2021/05/18 12:03:36;;;;;;;4.57;2.83;;;;;;;;;;5018707;28;20186;-56
2021/05/18 12:06:04;;;;;;;5.68;2.55;;;;;;;;;;5019972;28;20209;-56
2021/05/18 12:08:35;;;;;;;3.95;2.55;;;;;;;;;;5021904;28;20190;-56
2021/05/18 12:11:20;;;;;;;3.67;2.50;;;;;;;;;;5021035;28;20260;-56
2021/05/18 12:13:49;;;;;;;4.95;2.53;;;;;;;;;;5016833;28;20197;-57
2021/05/18 12:16:16;;;;;;;4.45;2.70;;;;;;;;;;5023776;28;20232;-57
2021/05/18 12:18:42;;;;;;;4.00;2.95;;;;;;;;;;5019619;28;20180;-55
2021/05/18 12:21:11;;;;;;;6.38;3.08;;;;;;;;;;5025869;28;20793;-56
2021/05/18 12:23:36;;;;;;;3.20;2.55;;;;;;;;;;5022242;28;20707;-54
2021/05/18 12:26:09;;;;;;;2.67;2.45;;;;;;;;;;5025697;28;20269;-54
2021/05/18 12:28:35;;;;;;;3.33;2.58;;;;;;;;;;5017613;28;20201;-58
2021/05/18 12:31:00;;;;;;;2.85;2.40;;;;;;;;;;5024446;28;20201;-57
2021/05/18 12:33:38;;;;;;;2.88;2.30;;;;;;;;;;5024317;28;20221;-57
2021/05/18 12:36:05;;;;;;;4.15;2.33;;;;;;;;;;5022625;28;20217;-55
2021/05/18 12:38:30;;;;;;;3.88;2.58;;;;;;;;;;5016148;28;20215;-57
2021/05/18 12:41:04;;;;;;;2.88;2.60;;;;;;;;;;5024095;28;20243;-56
2021/05/18 12:43:41;;;;;;;3.25;2.20;;;;;;;;;;5018386;28;20182;-58
2021/05/18 12:46:08;;;;;;;3.90;2.60;;;;;;;;;;5014618;28;20202;-59
2021/05/18 12:48:37;;;;;;;3.67;2.38;;;;;;;;;;5019319;28;20220;-57
2021/05/18 12:51:15;;;;;;;2.20;2.00;;;;;;;;;;5020367;28;20209;-57
2021/05/18 12:53:41;;;;;;;2.55;1.73;;;;;;;;;;5020046;28;20245;-57
2021/05/18 12:56:08;;;;;;;2.15;1.75;;;;;;;;;;5023289;28;20178;-57
2021/05/18 12:58:35;;;;;;;5.05;2.83;;;;;;;;;;5019196;28;20189;-57
2021/05/18 13:01:28;;;;;;;5.15;2.67;;;;;;;;;;5016196;28;20206;-55
2021/05/18 13:04:08;;;;;;;3.90;2.70;;;;;;;;;;5015863;28;20771;-56
2021/05/18 13:06:35;;;;;;;4.30;2.80;;;;;;;;;;5019759;28;20206;-57
2021/05/18 13:09:16;;;;;;;4.28;2.65;;;;;;;;;;5016875;28;20182;-56
2021/05/18 13:14:25;;;;;;;2.83;2.00;;;;;;;;;;5020617;28;20600;-56
2021/05/18 13:16:50;;;;;;;3.35;2.65;;;;;;;;;;5020927;28;20184;-56
2021/05/18 13:19:21;;;;;;;3.20;2.20;;;;;;;;;;5023911;28;20183;-56
2021/05/18 13:21:59;;;;;;;3.75;2.08;;;;;;;;;;5016359;28;20797;-57
2021/05/18 13:27:11;;;;;;;3.67;2.35;;;;;;;;;;5016101;28;20278;-57
2021/05/18 13:29:36;;;;;;;3.47;2.38;;;;;;;;;;5021938;28;20195;-55
2021/05/18 13:32:04;;;;;;;2.75;2.13;;;;;;;;;;5022616;28;20273;-57
2021/05/18 13:34:29;;;;;;;4.53;2.90;;;;;;;;;;5021263;28;20179;-57
2021/05/18 13:36:55;;;;;;;3.60;2.63;;;;;;;;;;5016791;28;20247;-57
2021/05/18 13:39:25;;;;;;;5.90;2.47;;;;;;;;;;5018840;28;20188;-55
2021/05/18 13:41:51;;;;;;;2.30;2.10;;;;;;;;;;5023838;28;20198;-57
2021/05/18 13:44:17;;;;;;;4.13;2.30;;;;;;;;;;5021434;28;20548;-55
2021/05/18 13:46:47;;;;;;;3.42;2.53;;;;;;;;;;5026652;28;20211;-58
2021/05/18 13:49:15;;;;;;;4.67;2.27;;;;;;;;;;5023767;28;20178;-56
2021/05/18 13:51:44;;;;;;;4.55;2.80;;;;;;;;;;5024107;28;20210;-56
2021/05/18 13:54:12;;;;;;;4.30;2.67;;;;;;;;;;5027354;28;20191;-57
2021/05/18 13:56:41;;;;;;;6.22;2.70;;;;;;;;;;5024915;28;20187;-57
2021/05/18 13:59:06;;;;;;;4.28;2.70;;;;;;;;;;5019714;28;20260;-57
2021/05/18 14:01:34;;;;;;;3.95;2.47;;;;;;;;;;5028730;28;20675;-58
2021/05/18 14:03:59;;;;;;;2.30;2.10;;;;;;;;;;5023478;28;20589;-57
2021/05/18 14:06:25;;;;;;;2.83;2.20;;;;;;;;;;5028255;28;20207;-57
2021/05/18 14:08:51;;;;;;;3.70;2.50;;;;;;;;;;5015431;28;20231;-56
2021/05/18 14:11:18;;;;;;;5.00;2.80;;;;;;;;;;5019904;28;20211;-57
2021/05/18 14:13:52;;;;;;;4.50;2.90;;;;;;;;;;5023716;28;20190;-57
2021/05/18 14:16:18;;;;;;;4.77;2.83;;;;;;;;;;5026189;28;20218;-57
2021/05/18 14:18:57;;;;;;;5.07;3.20;;;;;;;;;;5028513;28;20187;-55
2021/05/18 14:21:23;;;;;;;5.40;3.47;;;;;;;;;;5025802;28;20671;-56
2021/05/18 14:26:24;;;;;;;6.33;3.20;;;;;;;;;;5021888;28;20639;-55
2021/05/18 14:28:51;;;;;;;4.07;3.10;;;;;;;;;;5026711;28;20228;-55
2021/05/18 14:31:17;;;;;;;5.10;3.10;;;;;;;;;;5020268;28;20246;-54
2021/05/18 14:33:44;;;;;;;5.23;3.40;;;;;;;;;;5024886;28;20221;-55
2021/05/18 14:36:11;;;;;;;6.73;3.47;;;;;;;;;;5026318;28;20190;-55
2021/05/18 14:38:39;;;;;;;5.87;3.47;;;;;;;;;;5021823;28;20270;-56
2021/05/18 14:46:24;;;;;;;4.83;3.20;;;;;;;;;;5023928;28;20210;-56
2021/05/18 14:56:43;;;;;;;3.13;2.47;;;;;;;;;;5021750;28;20266;-56
2021/05/18 14:59:10;;;;;;;4.90;3.00;;;;;;;;;;5023531;28;20640;-56
2021/05/18 15:01:36;;;;;;;3.23;2.10;;;;;;;;;;5024353;28;20268;-56
2021/05/18 15:04:01;;;;;;;3.20;2.43;;;;;;;;;;5023771;28;20765;-55
2021/05/18 15:06:26;;;;;;;3.00;2.70;;;;;;;;;;5030533;28;20215;-56
2021/05/18 15:08:52;;;;;;;4.97;2.73;;;;;;;;;;5022396;28;20194;-56
2021/05/18 15:11:17;;;;;;;4.27;2.90;;;;;;;;;;5025497;28;20710;-57
2021/05/18 15:13:42;;;;;;;6.37;3.30;;;;;;;;;;5021120;28;20183;-57
2021/05/18 15:16:08;;;;;;;5.60;3.00;;;;;;;;;;5026757;28;20198;-56
2021/05/18 15:18:34;;;;;;;8.20;3.20;;;;;;;;;;5022130;28;20189;-55
2021/05/18 15:21:00;;;;;;;4.20;3.00;;;;;;;;;;5023869;28;20338;-56
2021/05/18 15:23:29;;;;;;;3.07;2.60;;;;;;;;;;5021414;28;20704;-57
2021/05/18 15:25:56;;;;;;;4.33;3.00;;;;;;;;;;5019947;28;20198;-56
2021/05/18 15:28:21;;;;;;;4.57;3.00;;;;;;;;;;5023165;28;20208;-57
2021/05/18 15:30:47;;;;;;;4.27;3.00;;;;;;;;;;5025926;28;20210;-57
2021/05/18 15:33:12;;;;;;;7.30;3.60;;;;;;;;;;5012886;28;20719;-56
2021/05/18 15:35:37;;;;;;;4.80;3.20;;;;;;;;;;5027090;28;20658;-57
2021/05/18 15:38:04;;;;;;;3.30;2.97;;;;;;;;;;5022914;28;20182;-56
2021/05/18 15:40:30;;;;;;;5.93;3.00;;;;;;;;;;5014921;28;20769;-57
2021/05/18 15:42:55;;;;;;;4.13;2.60;;;;;;;;;;5021877;28;20178;-57
2021/05/18 15:45:21;;;;;;;3.60;2.40;;;;;;;;;;5025472;28;21069;-57
2021/05/18 15:47:46;;;;;;;3.20;2.57;;;;;;;;;;5022988;28;20256;-57
2021/05/18 15:50:13;;;;;;;4.27;2.77;;;;;;;;;;5022495;28;20256;-54
2021/05/18 15:52:38;;;;;;;5.70;2.87;;;;;;;;;;5025764;28;20204;-57
2021/05/18 15:55:04;;;;;;;3.67;2.70;;;;;;;;;;5020997;28;20184;-55
2021/05/18 15:57:32;;;;;;;5.50;2.70;;;;;;;;;;5022128;28;20232;-58
2021/05/18 15:59:57;;;;;;;4.10;2.50;;;;;;;;;;5017269;28;20436;-57
2021/05/18 16:02:22;;;;;;;3.80;2.70;;;;;;;;;;5022744;28;20225;-56
2021/05/18 16:04:48;;;;;;;13.37;3.80;;;;;;;;;;5022460;28;20201;-56
2021/05/18 16:07:14;;;;;;;4.63;3.30;;;;;;;;;;5019801;28;20207;-55
2021/05/18 16:09:40;;;;;;;7.13;3.90;;;;;;;;;;5018232;28;20256;-55
2021/05/18 16:12:07;;;;;;;6.50;3.73;;;;;;;;;;5024782;28;20190;-54
2021/05/18 16:14:34;;;;;;;4.80;3.97;;;;;;;;;;5022165;28;20205;-54
2021/05/18 16:17:00;;;;;;;5.53;4.50;;;;;;;;;;5022933;28;20183;-57
2021/05/18 16:19:26;;;;;;;7.40;4.43;;;;;;;;;;5017119;28;20201;-54
2021/05/18 16:21:51;;;;;;;5.33;4.13;;;;;;;;;;5017439;28;20233;-55
2021/05/18 16:24:17;;;;;;;6.13;4.50;;;;;;;;;;5022283;28;20194;-56
2021/05/18 16:26:45;;;;;;;6.33;4.30;;;;;;;;;;5021401;28;20261;-55
2021/05/18 16:29:14;;;;;;;8.17;5.20;;;;;;;;;;5015856;28;20310;-55
2021/05/18 16:31:42;;;;;;;7.53;5.00;;;;;;;;;;5023496;28;20770;-55
2021/05/18 16:34:08;;;;;;;5.57;4.83;;;;;;;;;;5015503;28;20285;-56
2021/05/18 16:36:35;;;;;;;7.20;4.87;;;;;;;;;;5019833;28;20333;-54
2021/05/18 16:39:02;;;;;;;9.63;5.20;;;;;;;;;;5016957;28;20248;-54
2021/05/18 16:41:28;;;;;;;8.70;4.77;;;;;;;;;;5021295;28;20222;-55
2021/05/18 16:43:53;;;;;;;9.23;5.63;;;;;;;;;;5018037;28;20195;-54
2021/05/18 16:46:18;;;;;;;6.70;4.77;;;;;;;;;;5015819;28;20211;-55
2021/05/18 16:48:43;;;;;;;9.17;4.87;;;;;;;;;;5018144;28;20183;-54
2021/05/18 16:51:12;;;;;;;10.00;5.43;;;;;;;;;;5015701;28;20498;-54
2021/05/18 16:53:37;;;;;;;8.23;4.80;;;;;;;;;;5019994;28;20198;-56
2021/05/18 16:56:06;;;;;;;5.90;4.83;;;;;;;;;;5020013;28;20201;-54
2021/05/18 16:58:32;;;;;;;7.97;4.87;;;;;;;;;;5016027;28;20234;-56
2021/05/18 17:00:59;;;;;;;5.57;5.00;;;;;;;;;;5019295;28;20206;-57
2021/05/18 17:03:24;;;;;;;7.60;5.17;;;;;;;;;;5012885;28;20207;-57
2021/05/18 17:05:49;;;;;;;5.43;4.73;;;;;;;;;;5023806;28;20194;-56
2021/05/18 17:08:15;;;;;;;8.13;5.30;;;;;;;;;;5016583;28;20222;-59
2021/05/18 17:10:43;;;;;;;6.27;5.17;;;;;;;;;;5018064;28;20210;-55
2021/05/18 17:13:09;;;;;;;7.33;5.07;;;;;;;;;;5015700;28;20826;-56
2021/05/18 17:15:37;;;;;;;6.37;5.07;;;;;;;;;;5017038;28;20633;-57
2021/05/18 17:18:03;;;;;;;7.13;4.80;;;;;;;;;;5015176;28;20198;-55
2021/05/18 17:20:31;;;;;;;6.30;4.90;;;;;;;;;;5015404;28;20210;-55
2021/05/18 17:22:57;;;;;;;7.50;5.50;;;;;;;;;;5022241;28;20226;-58
2021/05/18 17:25:22;;;;;;;6.40;5.80;;;;;;;;;;5016844;28;20260;-56
2021/05/18 17:27:47;;;;;;;7.10;5.63;;;;;;;;;;5024778;28;20245;-53
2021/05/18 17:30:19;;;;;;;6.90;4.73;;;;;;;;;;5023532;28;20733;-53
2021/05/18 17:32:45;;;;;;;5.63;4.93;;;;;;;;;;5022703;28;20225;-53
2021/05/18 17:35:13;;;;;;;7.33;5.60;;;;;;;;;;5018277;28;20195;-56
2021/05/18 17:37:41;;;;;;;5.47;4.60;;;;;;;;;;5023988;28;20241;-53
2021/05/18 17:40:08;;;;;;;5.57;4.50;;;;;;;;;;5026280;28;20214;-56
2021/05/18 17:42:33;;;;;;;5.33;4.83;;;;;;;;;;5024419;28;20194;-56
2021/05/18 17:45:04;;;;;;;9.00;5.00;;;;;;;;;;5021556;28;20194;-56
2021/05/18 17:47:32;;;;;;;6.17;4.67;;;;;;;;;;5026138;28;20210;-54
2021/05/18 17:49:58;;;;;;;7.20;4.77;;;;;;;;;;5015274;28;20210;-58
2021/05/18 17:52:23;;;;;;;5.70;4.70;;;;;;;;;;5023250;28;20195;-56
2021/05/18 17:54:48;;;;;;;4.93;4.43;;;;;;;;;;5026537;28;20190;-56
2021/05/18 17:57:14;;;;;;;5.80;4.90;;;;;;;;;;5027841;28;20186;-56
2021/05/18 17:59:39;;;;;;;6.07;4.60;;;;;;;;;;5028510;28;20262;-55
2021/05/18 18:02:08;;;;;;;5.93;4.60;;;;;;;;;;5033128;28;20783;-55
2021/05/18 18:04:38;;;;;;;7.20;5.20;;;;;;;;;;5022251;28;20948;-55
2021/05/18 18:07:06;;;;;;;5.87;4.63;;;;;;;;;;5022461;28;20207;-55
2021/05/18 18:09:38;;;;;;;8.90;4.43;;;;;;;;;;5019831;28;20241;-55
2021/05/18 18:12:04;;;;;;;7.33;4.50;;;;;;;;;;5021616;28;20213;-55
2021/05/18 18:14:29;;;;;;;5.43;4.53;;;;;;;;;;5026847;28;20690;-54
2021/05/18 18:16:55;;;;;;;5.67;3.90;;;;;;;;;;5020914;28;20215;-55
2021/05/18 18:19:20;;;;;;;6.37;4.40;;;;;;;;;;5022928;28;20874;-55
2021/05/18 18:21:45;;;;;;;6.13;3.83;;;;;;;;;;5021315;28;20210;-56
2021/05/18 18:24:11;;;;;;;4.90;4.27;;;;;;;;;;5020738;28;20198;-57
2021/05/18 18:26:37;;;;;;;5.50;4.50;;;;;;;;;;5018756;28;20227;-57
2021/05/18 18:29:04;;;;;;;4.87;4.37;;;;;;;;;;5025336;28;21189;-58
2021/05/18 18:31:29;;;;;;;7.93;4.33;;;;;;;;;;5024991;28;20718;-59
2021/05/18 18:33:57;;;;;;;6.23;4.87;;;;;;;;;;5026747;28;20190;-59
2021/05/18 18:36:22;;;;;;;7.57;4.77;;;;;;;;;;5030333;28;20237;-57
2021/05/18 18:38:47;;;;;;;5.47;4.53;;;;;;;;;;5028538;28;20654;-55
2021/05/18 18:41:13;;;;;;;4.77;4.33;;;;;;;;;;5026586;28;20214;-57
2021/05/18 18:43:38;;;;;;;5.50;4.10;;;;;;;;;;5030166;28;20225;-56
2021/05/18 18:46:05;;;;;;;6.57;3.97;;;;;;;;;;5028880;28;20194;-62
2021/05/18 18:48:35;;;;;;;4.73;4.23;;;;;;;;;;5022794;28;20757;-57
2021/05/18 18:51:11;;;;;;;6.07;4.43;;;;;;;;;;5016803;28;20215;-56
2021/05/18 18:53:54;;;;;;;4.37;3.97;;;;;;;;;;5023474;28;20324;-58
2021/05/18 18:56:22;;;;;;;6.40;4.50;;;;;;;;;;5025677;28;20198;-56
2021/05/18 18:58:47;;;;;;;5.63;4.30;;;;;;;;;;5020658;28;20684;-57
2021/05/18 19:03:55;;;;;;;5.70;4.53;;;;;;;;;;5037659;23;20234;-62
2021/05/18 19:06:42;;;;;;;5.87;4.30;;;;;;;;;;4992779;28;20721;-63
2021/05/18 19:14:13;;;;;;;8.57;4.90;;;;;;;;;;4987459;28;20206;-64
2021/05/18 19:16:43;;;;;;;6.00;5.30;;;;;;;;;;4988562;28;20214;-64
2021/05/18 19:19:10;;;;;;;6.70;5.50;;;;;;;;;;4987390;28;20196;-64
2021/05/18 19:21:38;;;;;;;7.20;5.70;;;;;;;;;;4971923;28;20219;-62
2021/05/18 19:24:07;;;;;;;6.73;5.23;;;;;;;;;;4969089;28;20265;-62
2021/05/18 19:26:35;;;;;;;7.97;5.80;;;;;;;;;;4990061;28;20300;-63
2021/05/18 19:29:03;;;;;;;9.57;5.83;;;;;;;;;;4986658;28;20191;-62
2021/05/18 19:31:28;;;;;;;6.50;5.80;;;;;;;;;;4986498;28;20683;-63
2021/05/18 19:33:57;;;;;;;6.67;5.80;;;;;;;;;;4988534;28;20231;-65
2021/05/18 19:36:36;;;;;;;7.50;6.37;;;;;;;;;;4986778;28;20184;-63
2021/05/18 19:42:02;;;;;;;11.17;6.43;;;;;;;;;;4986449;28;20226;-64
2021/05/18 19:50:09;;;;;;;9.07;6.23;;;;;;;;;;4987927;28;20231;-62
2021/05/18 19:52:35;;;;;;;10.53;5.80;;;;;;;;;;4987103;28;20843;-60
2021/05/18 19:55:02;;;;;;;9.83;5.50;;;;;;;;;;4988041;28;20200;-64
2021/05/18 19:57:36;;;;;;;7.63;5.30;;;;;;;;;;4969486;28;20219;-62
2021/05/18 20:08:51;;;;;;;5.47;4.57;;;;;;;;;;4984698;28;20307;-61